Terminal Aerodrome Forecast
Issued by NWS Wilmington, OH

Current Version | Previous Version | Graphics & Text | Print | Product List | Glossary On
Versions: 1 2 3 4 5 6 7 8 9 10 11 12 13 14 15 16 17 18 19 20 21 22 23 24 25 26 27
000
FTUS41 KILN 151700 RRA
TAFDAY
TAF
KDAY 151742Z 1518/1618 15012KT P6SM SCT022 BKN250
      TEMPO 1518/1522 BKN022
     FM160000 15010KT P6SM -RA SCT022 OVC060
     FM160500 17010KT P6SM VCSH BKN015 OVC035
     FM160900 19007KT 4SM -SHRA BR SCT006 OVC012
      TEMPO 1610/1613 2SM BR BKN006
     FM161500 22012G20KT 5SM -SHRA BR OVC015=

USA.gov is the U.S. government's official web portal to all federal, state and local government web resources and services.